createdAt,value
2023-04-29T00:01:39.873Z,93.68
2023-04-29T00:04:48.175Z,93.90
2023-04-29T00:07:57.891Z,93.08
2023-04-29T00:11:06.189Z,93.92
2023-04-29T00:14:14.461Z,94.16
2023-04-29T00:17:22.851Z,94.54
2023-04-29T00:20:30.991Z,94.50
2023-04-29T00:23:40.981Z,94.65
2023-04-29T00:26:49.393Z,94.26
2023-04-29T00:29:57.941Z,94.46
2023-04-29T00:33:06.149Z,93.92
2023-04-29T00:36:15.681Z,94.63
2023-04-29T00:39:25.732Z,94.56
2023-04-29T00:42:34.348Z,94.15
2023-04-29T00:45:42.495Z,94.55
2023-04-29T00:48:51.504Z,93.77
2023-04-29T00:52:02.270Z,92.57
2023-04-29T00:55:13.949Z,93.11
2023-04-29T00:58:23.981Z,94.23
2023-04-29T01:01:32.451Z,93.98
2023-04-29T01:04:40.637Z,93.90
2023-04-29T01:08:05.501Z,93.53
2023-04-29T01:11:20.295Z,93.02
2023-04-29T01:14:30.137Z,93.46
2023-04-29T01:17:45.524Z,93.49
2023-04-29T01:20:54.908Z,93.38
2023-04-29T01:24:04.573Z,93.32
2023-04-29T01:27:29.628Z,93.57
2023-04-29T01:30:58.188Z,93.58
2023-04-29T01:34:14.790Z,93.17
2023-04-29T01:37:39.947Z,92.82
2023-04-29T01:41:00.641Z,93.53
2023-04-29T01:44:16.566Z,93.40
2023-04-29T01:47:26.063Z,93.26
2023-04-29T01:50:35.660Z,93.71
2023-04-29T01:53:52.635Z,93.69
2023-04-29T01:57:02.305Z,93.50
2023-04-29T02:00:32.015Z,93.44
2023-04-29T02:03:41.439Z,93.97
2023-04-29T02:06:54.341Z,93.26
2023-04-29T02:10:02.700Z,93.70
2023-04-29T02:13:16.447Z,94.38
2023-04-29T02:16:25.422Z,93.60
2023-04-29T02:19:38.438Z,94.19
2023-04-29T02:22:47.232Z,94.42
2023-04-29T02:25:56.104Z,93.21
2023-04-29T02:29:07.638Z,93.04
2023-04-29T02:32:16.034Z,93.08
2023-04-29T02:35:24.308Z,92.68
2023-04-29T02:38:32.788Z,93.18
2023-04-29T02:41:42.138Z,92.25
2023-04-29T02:44:54.495Z,93.48
2023-04-29T02:48:03.294Z,92.97
2023-04-29T02:51:11.848Z,93.00
2023-04-29T02:54:20.561Z,92.01
2023-04-29T02:57:29.732Z,92.29
2023-04-29T03:00:41.585Z,92.43
2023-04-29T03:03:50.557Z,91.57
2023-04-29T03:06:59.594Z,92.62
2023-04-29T03:10:10.504Z,93.27
2023-04-29T03:13:20.456Z,93.40
2023-04-29T03:16:30.384Z,92.44
2023-04-29T03:19:38.547Z,93.72
2023-04-29T03:22:46.684Z,93.54
2023-04-29T03:25:55.756Z,93.32
2023-04-29T03:29:04.297Z,92.21
2023-04-29T03:32:13.937Z,93.05
2023-04-29T03:35:22.697Z,92.48
2023-04-29T03:38:51.042Z,92.24
2023-04-29T03:41:59.824Z,92.18
2023-04-29T03:45:10.211Z,92.42
2023-04-29T03:48:21.353Z,91.87
2023-04-29T03:51:29.754Z,92.10
2023-04-29T03:54:47.086Z,91.81
2023-04-29T03:57:55.409Z,91.97
2023-04-29T04:01:04.317Z,91.41
2023-04-29T04:04:23.051Z,92.07
2023-04-29T04:07:32.375Z,91.78
2023-04-29T04:11:06.855Z,91.89
2023-04-29T04:14:22.435Z,92.00
2023-04-29T04:17:31.914Z,91.00
2023-04-29T04:20:42.002Z,91.68
2023-04-29T04:23:51.335Z,91.74
2023-04-29T04:27:03.523Z,91.62
2023-04-29T04:30:17.423Z,91.87
2023-04-29T04:33:27.391Z,91.79
2023-04-29T04:36:36.959Z,91.63
2023-04-29T04:39:45.526Z,92.49
2023-04-29T04:42:56.548Z,90.92
2023-04-29T04:46:12.612Z,91.07
2023-04-29T04:49:25.930Z,90.38
2023-04-29T04:52:36.249Z,90.20
2023-04-29T04:55:56.766Z,89.91
2023-04-29T04:59:05.601Z,90.08
2023-04-29T05:02:15.732Z,89.47
2023-04-29T05:05:23.871Z,89.97
2023-04-29T05:08:34.365Z,89.62
2023-04-29T05:11:45.064Z,88.45
2023-04-29T05:14:55.635Z,88.42
2023-04-29T05:18:04.337Z,88.69
2023-04-29T05:21:13.103Z,88.76
2023-04-29T05:24:23.669Z,88.72
2023-04-29T05:27:32.949Z,88.75
2023-04-29T05:30:42.163Z,87.31
2023-04-29T05:33:50.643Z,86.82
2023-04-29T05:36:59.394Z,87.32
2023-04-29T05:40:11.657Z,87.43
2023-04-29T05:43:20.920Z,86.56
2023-04-29T05:46:29.430Z,85.15
2023-04-29T05:49:37.679Z,84.22
2023-04-29T05:52:46.222Z,83.98
2023-04-29T05:55:56.058Z,83.32
2023-04-29T05:59:04.435Z,82.43
2023-04-29T06:02:14.660Z,79.97
2023-04-29T06:05:24.397Z,76.63
2023-04-29T06:08:56.144Z,69.14
2023-04-29T06:12:09.864Z,69.53
2023-04-29T06:15:18.199Z,71.19
2023-04-29T06:18:27.170Z,70.01
2023-04-29T06:21:35.617Z,67.75
2023-04-29T06:24:44.049Z,67.59
2023-04-29T06:27:58.472Z,72.00
2023-04-29T06:31:09.599Z,66.58
2023-04-29T06:34:18.202Z,61.56
2023-04-29T06:37:42.694Z,57.48
2023-04-29T06:41:08.097Z,63.16
2023-04-29T06:44:38.212Z,67.14
2023-04-29T06:48:16.029Z,70.80
2023-04-29T06:51:29.460Z,75.44
2023-04-29T06:54:39.703Z,73.73
2023-04-29T06:57:48.158Z,68.88
2023-04-29T07:00:57.812Z,69.71
2023-04-29T07:04:06.929Z,65.95
2023-04-29T07:07:15.187Z,67.62
2023-04-29T07:10:23.445Z,68.11
2023-04-29T07:13:31.828Z,74.46
2023-04-29T07:16:41.920Z,74.76
2023-04-29T07:19:53.515Z,78.38
2023-04-29T07:23:02.245Z,78.35
2023-04-29T07:26:13.204Z,80.09
2023-04-29T07:29:21.841Z,77.84
2023-04-29T07:32:32.897Z,78.15
2023-04-29T07:35:44.851Z,77.39
2023-04-29T07:38:54.188Z,75.61
2023-04-29T07:42:03.162Z,70.44
2023-04-29T07:45:15.028Z,62.75
2023-04-29T07:48:27.484Z,59.37
2023-04-29T07:51:35.982Z,61.55
2023-04-29T07:54:44.373Z,62.71
2023-04-29T07:57:54.288Z,55.78
2023-04-29T08:01:08.701Z,55.73
2023-04-29T08:04:19.262Z,60.51
2023-04-29T08:07:31.285Z,59.93
2023-04-29T08:10:43.166Z,61.49
2023-04-29T08:13:51.880Z,55.16
2023-04-29T08:17:00.275Z,56.67
2023-04-29T08:20:11.808Z,65.16
2023-04-29T08:23:20.045Z,64.42
2023-04-29T08:26:28.355Z,57.12
2023-04-29T08:29:37.017Z,55.21
2023-04-29T08:32:45.589Z,56.23
2023-04-29T08:36:03.559Z,63.45
2023-04-29T08:39:11.787Z,67.31
2023-04-29T08:42:34.187Z,67.34
2023-04-29T08:45:43.672Z,65.59
2023-04-29T08:48:53.132Z,69.34
2023-04-29T08:52:02.766Z,64.17
2023-04-29T08:55:11.538Z,68.33
2023-04-29T08:58:20.080Z,70.78
2023-04-29T09:01:31.014Z,72.55
2023-04-29T09:04:49.078Z,71.62
2023-04-29T09:08:03.183Z,69.03
2023-04-29T09:11:13.162Z,64.02
2023-04-29T09:14:23.892Z,60.12
2023-04-29T09:17:54.871Z,56.88
2023-04-29T09:21:16.140Z,56.70
2023-04-29T09:24:29.713Z,53.83
2023-04-29T09:27:37.953Z,53.99
2023-04-29T09:30:50.689Z,61.92
2023-04-29T09:33:59.339Z,59.86
2023-04-29T09:37:27.666Z,57.75
2023-04-29T09:40:50.125Z,56.28
2023-04-29T09:44:06.701Z,57.48
2023-04-29T09:47:18.771Z,53.54
2023-04-29T09:50:27.288Z,55.46
2023-04-29T09:53:38.200Z,60.13
2023-04-29T09:56:53.112Z,62.64
2023-04-29T10:00:01.569Z,63.60
2023-04-29T10:03:10.334Z,61.25
2023-04-29T10:06:19.190Z,61.85
2023-04-29T10:09:27.806Z,60.56
2023-04-29T10:12:39.654Z,57.05
2023-04-29T10:16:01.168Z,56.76
2023-04-29T10:19:16.692Z,52.96
2023-04-29T10:22:44.075Z,49.73
2023-04-29T10:25:56.529Z,51.74
2023-04-29T10:29:10.364Z,59.35
2023-04-29T10:32:19.696Z,62.46
2023-04-29T10:35:28.591Z,64.33
2023-04-29T10:38:42.190Z,65.30
2023-04-29T10:41:52.816Z,58.83
2023-04-29T10:45:36.344Z,58.93
2023-04-29T10:48:46.961Z,58.95
2023-04-29T10:52:05.751Z,58.26
2023-04-29T10:55:14.344Z,59.76
2023-04-29T10:58:37.912Z,57.35
2023-04-29T11:01:51.483Z,58.36
2023-04-29T11:05:10.888Z,58.78
2023-04-29T11:08:26.607Z,63.29
2023-04-29T11:12:03.955Z,63.57
2023-04-29T11:15:13.441Z,63.73
2023-04-29T11:18:25.039Z,63.32
2023-04-29T11:21:36.361Z,62.78
2023-04-29T11:24:52.831Z,62.26
2023-04-29T11:28:02.357Z,60.42
2023-04-29T11:31:11.116Z,61.20
2023-04-29T11:34:27.772Z,59.67
2023-04-29T11:37:37.379Z,56.46
2023-04-29T11:40:53.283Z,58.66
2023-04-29T11:44:03.732Z,58.42
2023-04-29T11:47:12.621Z,63.55
2023-04-29T11:50:22.916Z,61.20
2023-04-29T11:53:31.613Z,60.63
2023-04-29T11:56:40.819Z,58.89
2023-04-29T11:59:49.088Z,60.95
2023-04-29T12:02:57.890Z,58.76
2023-04-29T12:06:08.480Z,58.77
2023-04-29T12:09:19.404Z,55.23
2023-04-29T12:12:29.268Z,56.00
2023-04-29T12:15:40.339Z,54.54
2023-04-29T12:18:49.201Z,59.29
2023-04-29T12:22:02.118Z,57.63
2023-04-29T12:25:12.101Z,57.87
2023-04-29T12:28:23.494Z,61.18
2023-04-29T12:31:36.485Z,55.48
2023-04-29T12:34:48.089Z,58.72
2023-04-29T12:38:00.690Z,56.06
2023-04-29T12:41:09.225Z,57.36
2023-04-29T12:44:18.026Z,56.67
2023-04-29T12:47:34.759Z,54.66
2023-04-29T12:50:43.380Z,53.94
2023-04-29T12:53:53.310Z,54.71
2023-04-29T12:57:02.827Z,55.49
2023-04-29T13:00:13.466Z,57.25
2023-04-29T13:03:22.419Z,55.26
2023-04-29T13:06:32.390Z,54.85
2023-04-29T13:09:42.332Z,55.95
2023-04-29T13:12:50.904Z,55.95
2023-04-29T13:15:59.345Z,54.54
2023-04-29T13:19:24.602Z,55.98
2023-04-29T13:22:37.359Z,56.99
2023-04-29T13:25:48.397Z,53.14
2023-04-29T13:28:56.861Z,56.12
2023-04-29T13:32:06.872Z,57.09
2023-04-29T13:35:15.287Z,55.74
2023-04-29T13:38:23.811Z,55.93
2023-04-29T13:41:35.546Z,53.04
2023-04-29T13:44:52.175Z,56.60
2023-04-29T13:54:58.503Z,52.69
2023-04-29T14:01:37.860Z,51.88
2023-04-29T14:04:37.840Z,55.62
2023-04-29T14:07:47.285Z,53.95
2023-04-29T14:10:56.954Z,52.96
2023-04-29T14:14:08.587Z,54.54
2023-04-29T14:17:17.878Z,53.57
2023-04-29T14:20:27.009Z,54.35
2023-04-29T14:23:36.147Z,52.07
2023-04-29T14:26:45.510Z,51.14
2023-04-29T14:29:55.538Z,51.45
2023-04-29T14:33:04.112Z,51.62
2023-04-29T14:36:12.525Z,51.67
2023-04-29T14:39:21.269Z,52.67
2023-04-29T14:42:29.816Z,52.24
2023-04-29T14:45:40.760Z,50.98
2023-04-29T14:48:49.420Z,53.26
2023-04-29T14:51:57.926Z,52.43
2023-04-29T14:55:07.925Z,54.55
2023-04-29T14:58:16.470Z,53.93
2023-04-29T15:01:28.256Z,53.96
2023-04-29T15:04:38.071Z,53.93
2023-04-29T15:07:46.635Z,55.42
2023-04-29T15:10:55.166Z,55.67
2023-04-29T15:14:04.086Z,56.92
2023-04-29T15:17:14.725Z,53.95
2023-04-29T15:20:23.556Z,54.09
2023-04-29T15:23:33.333Z,53.04
2023-04-29T15:26:42.136Z,54.72
2023-04-29T15:29:53.300Z,51.24
2023-04-29T15:33:04.577Z,52.50
2023-04-29T15:36:13.270Z,53.92
2023-04-29T15:39:21.693Z,52.25
2023-04-29T15:42:31.270Z,52.11
2023-04-29T15:45:39.852Z,53.33
2023-04-29T15:48:49.718Z,54.07
2023-04-29T15:51:58.111Z,55.51
2023-04-29T15:55:07.645Z,55.35
2023-04-29T15:58:16.148Z,55.95
2023-04-29T16:01:24.710Z,55.93
2023-04-29T16:04:34.571Z,55.76
2023-04-29T16:07:43.631Z,54.76
2023-04-29T16:10:52.132Z,55.22
2023-04-29T16:14:00.600Z,54.28
2023-04-29T16:17:09.097Z,52.15
2023-04-29T16:20:19.321Z,54.83
2023-04-29T16:23:27.922Z,54.60
2023-04-29T16:26:37.347Z,54.83
2023-04-29T16:29:45.809Z,54.09
2023-04-29T16:32:54.283Z,54.25
2023-04-29T16:36:05.279Z,53.26
2023-04-29T16:39:13.850Z,53.53
2023-04-29T16:42:22.548Z,55.79
2023-04-29T16:45:31.466Z,55.53
2023-04-29T16:48:39.977Z,54.56
2023-04-29T16:51:50.612Z,54.18
2023-04-29T16:55:01.421Z,48.90
2023-04-29T16:58:10.095Z,46.38
2023-04-29T17:01:19.709Z,48.22
2023-04-29T17:04:28.616Z,52.19
2023-04-29T17:07:38.671Z,53.14
2023-04-29T17:10:47.231Z,55.71
2023-04-29T17:13:56.484Z,57.29
2023-04-29T17:17:05.321Z,57.47
2023-04-29T17:20:14.716Z,57.96
2023-04-29T17:23:24.604Z,59.25
2023-04-29T17:26:33.304Z,59.14
2023-04-29T17:29:42.031Z,59.98
2023-04-29T17:32:50.638Z,60.16
2023-04-29T17:36:01.220Z,61.19
2023-04-29T17:39:12.465Z,60.09
2023-04-29T17:42:21.045Z,60.66
2023-04-29T17:45:29.644Z,61.46
2023-04-29T17:48:38.597Z,61.25
2023-04-29T17:51:47.277Z,62.00
2023-04-29T17:54:57.062Z,62.18
2023-04-29T17:58:05.713Z,62.56
2023-04-29T18:01:14.673Z,62.40
2023-04-29T18:04:23.232Z,62.24
2023-04-29T18:07:31.803Z,61.93
2023-04-29T18:10:42.117Z,62.43
2023-04-29T18:13:53.477Z,63.40
2023-04-29T18:17:02.376Z,64.09
2023-04-29T18:20:12.944Z,64.49
2023-04-29T18:23:22.563Z,65.03
2023-04-29T18:26:33.101Z,64.90
2023-04-29T18:29:42.114Z,66.65
2023-04-29T18:32:50.693Z,66.55
2023-04-29T18:35:59.314Z,67.70
2023-04-29T18:39:08.319Z,67.73
2023-04-29T18:42:18.705Z,68.76
2023-04-29T18:45:27.235Z,69.06
2023-04-29T18:48:36.601Z,68.43
2023-04-29T18:51:46.692Z,68.88
2023-04-29T18:54:55.224Z,68.66
2023-04-29T18:58:05.685Z,69.81
2023-04-29T19:01:14.260Z,69.65
2023-04-29T19:04:23.213Z,70.92
2023-04-29T19:07:32.242Z,70.98
2023-04-29T19:10:41.024Z,70.69
2023-04-29T19:13:51.325Z,71.64
2023-04-29T19:16:59.877Z,70.12
2023-04-29T19:20:10.221Z,70.47
2023-04-29T19:23:19.347Z,71.04
2023-04-29T19:26:29.051Z,71.90
2023-04-29T19:29:38.961Z,72.17
2023-04-29T19:32:47.943Z,71.40
2023-04-29T19:35:56.505Z,71.81
2023-04-29T19:39:05.130Z,72.43
2023-04-29T19:42:13.659Z,71.70
2023-04-29T19:45:24.088Z,72.06
2023-04-29T19:48:32.883Z,74.84
2023-04-29T19:51:44.515Z,73.75
2023-04-29T19:54:53.740Z,73.93
2023-04-29T19:58:02.266Z,73.87
2023-04-29T20:01:12.348Z,73.84
2023-04-29T20:04:22.156Z,72.93
2023-04-29T20:07:31.325Z,73.74
2023-04-29T20:10:41.235Z,74.21
2023-04-29T20:13:50.371Z,74.05
2023-04-29T20:17:01.507Z,74.12
2023-04-29T20:20:11.180Z,74.44
2023-04-29T20:23:20.241Z,74.83
2023-04-29T20:26:29.310Z,74.97
2023-04-29T20:29:38.459Z,74.09
2023-04-29T20:32:48.785Z,74.25
2023-04-29T20:36:05.491Z,74.60
2023-04-29T20:39:14.915Z,75.34
2023-04-29T20:42:23.851Z,75.51
2023-04-29T20:45:33.144Z,75.79
2023-04-29T20:48:47.574Z,75.81
2023-04-29T20:51:56.722Z,75.74
2023-04-29T20:55:06.449Z,75.42
2023-04-29T20:58:16.514Z,76.08
2023-04-29T21:01:25.139Z,75.94
2023-04-29T21:04:35.483Z,75.55
2023-04-29T21:07:44.185Z,74.68
2023-04-29T21:10:53.136Z,75.20
2023-04-29T21:14:01.766Z,75.90
2023-04-29T21:17:11.438Z,76.01
2023-04-29T21:20:22.133Z,76.34
2023-04-29T21:23:32.460Z,76.63
2023-04-29T21:26:41.142Z,76.00
2023-04-29T21:29:49.804Z,76.88
2023-04-29T21:32:58.556Z,76.46
2023-04-29T21:36:09.342Z,77.27
2023-04-29T21:39:23.662Z,77.45
2023-04-29T21:42:33.249Z,78.09
2023-04-29T21:45:43.120Z,77.44
2023-04-29T21:48:53.448Z,78.72
2023-04-29T21:52:03.655Z,78.26
2023-04-29T21:55:12.433Z,77.70
2023-04-29T21:58:21.054Z,77.15
2023-04-29T22:01:48.848Z,76.22
2023-04-29T22:04:57.841Z,75.84
2023-04-29T22:08:09.075Z,77.12
2023-04-29T22:11:19.658Z,76.71
2023-04-29T22:14:28.226Z,76.84
2023-04-29T22:17:37.986Z,77.00
2023-04-29T22:20:46.778Z,77.33
2023-04-29T22:23:57.217Z,77.13
2023-04-29T22:27:06.198Z,77.02
2023-04-29T22:30:15.039Z,77.51
2023-04-29T22:33:23.695Z,76.08
2023-04-29T22:36:33.135Z,75.88
2023-04-29T22:39:43.096Z,75.84
2023-04-29T22:42:51.717Z,76.33
2023-04-29T22:46:01.096Z,76.28
2023-04-29T22:49:09.801Z,76.64
2023-04-29T22:52:18.435Z,77.88
2023-04-29T22:55:28.328Z,78.11
2023-04-29T22:58:36.955Z,77.84
2023-04-29T23:01:46.245Z,78.03
2023-04-29T23:04:56.108Z,77.82
2023-04-29T23:08:05.401Z,77.81
2023-04-29T23:11:15.312Z,78.57
2023-04-29T23:14:24.196Z,77.80
2023-04-29T23:17:33.892Z,77.98
2023-04-29T23:20:42.622Z,78.44
2023-04-29T23:23:51.089Z,78.42
2023-04-29T23:27:01.258Z,78.62
2023-04-29T23:30:10.824Z,78.85
2023-04-29T23:33:19.449Z,78.61
2023-04-29T23:36:28.410Z,77.35
2023-04-29T23:39:37.124Z,77.22
2023-04-29T23:42:47.567Z,78.05
2023-04-29T23:45:56.691Z,79.08
2023-04-29T23:49:05.520Z,78.09
2023-04-29T23:52:14.219Z,77.64
2023-04-29T23:55:22.940Z,77.65
2023-04-29T23:58:32.938Z,77.13
